sensor_id;sensor_type;location;lat;lon;timestamp;temperature;humidity
20568;DHT22;10442;49.932;11.592;2023-03-20T00:01:30;11.60;76.70
20568;DHT22;10442;49.932;11.592;2023-03-20T00:03:58;11.60;76.70
20568;DHT22;10442;49.932;11.592;2023-03-20T00:06:27;11.60;76.60
20568;DHT22;10442;49.932;11.592;2023-03-20T00:08:57;11.50;76.50
20568;DHT22;10442;49.932;11.592;2023-03-20T00:11:38;11.50;76.50
20568;DHT22;10442;49.932;11.592;2023-03-20T00:14:13;11.50;76.60
20568;DHT22;10442;49.932;11.592;2023-03-20T00:16:44;11.40;76.70
20568;DHT22;10442;49.932;11.592;2023-03-20T00:19:26;11.40;76.60
20568;DHT22;10442;49.932;11.592;2023-03-20T00:21:56;11.40;77.60
20568;DHT22;10442;49.932;11.592;2023-03-20T00:24:24;11.30;76.80
20568;DHT22;10442;49.932;11.592;2023-03-20T00:26:52;11.30;76.80
20568;DHT22;10442;49.932;11.592;2023-03-20T00:29:28;11.20;76.70
20568;DHT22;10442;49.932;11.592;2023-03-20T00:31:57;11.20;76.90
20568;DHT22;10442;49.932;11.592;2023-03-20T00:34:27;11.10;76.90
20568;DHT22;10442;49.932;11.592;2023-03-20T00:36:56;11.10;77.10
20568;DHT22;10442;49.932;11.592;2023-03-20T00:39:24;11.00;77.10
20568;DHT22;10442;49.932;11.592;2023-03-20T00:41:59;11.00;77.30
20568;DHT22;10442;49.932;11.592;2023-03-20T00:47:03;10.90;77.50
20568;DHT22;10442;49.932;11.592;2023-03-20T00:49:34;10.90;77.60
20568;DHT22;10442;49.932;11.592;2023-03-20T00:52:02;10.90;77.70
20568;DHT22;10442;49.932;11.592;2023-03-20T00:54:30;10.90;77.80
20568;DHT22;10442;49.932;11.592;2023-03-20T00:57:22;10.80;77.70
20568;DHT22;10442;49.932;11.592;2023-03-20T00:59:57;10.80;77.70
20568;DHT22;10442;49.932;11.592;2023-03-20T01:02:28;10.80;77.70
20568;DHT22;10442;49.932;11.592;2023-03-20T01:04:56;10.80;77.60
20568;DHT22;10442;49.932;11.592;2023-03-20T01:07:25;10.70;77.50
20568;DHT22;10442;49.932;11.592;2023-03-20T01:09:52;10.70;77.50
20568;DHT22;10442;49.932;11.592;2023-03-20T01:12:19;10.70;77.70
20568;DHT22;10442;49.932;11.592;2023-03-20T01:14:57;10.70;78.00
20568;DHT22;10442;49.932;11.592;2023-03-20T01:17:27;10.70;78.30
20568;DHT22;10442;49.932;11.592;2023-03-20T01:19:54;10.70;78.20
20568;DHT22;10442;49.932;11.592;2023-03-20T01:22:22;10.70;78.10
20568;DHT22;10442;49.932;11.592;2023-03-20T01:24:50;10.70;78.10
20568;DHT22;10442;49.932;11.592;2023-03-20T01:27:18;10.70;78.20
20568;DHT22;10442;49.932;11.592;2023-03-20T01:29:46;10.70;79.00
20568;DHT22;10442;49.932;11.592;2023-03-20T01:32:16;10.70;78.30
20568;DHT22;10442;49.932;11.592;2023-03-20T01:34:47;10.70;78.30
20568;DHT22;10442;49.932;11.592;2023-03-20T01:37:24;10.70;78.40
20568;DHT22;10442;49.932;11.592;2023-03-20T01:39:52;10.70;78.60
20568;DHT22;10442;49.932;11.592;2023-03-20T01:42:21;10.70;78.40
20568;DHT22;10442;49.932;11.592;2023-03-20T01:44:48;10.70;78.40
20568;DHT22;10442;49.932;11.592;2023-03-20T01:47:19;10.70;78.30
20568;DHT22;10442;49.932;11.592;2023-03-20T01:50:13;10.70;78.40
20568;DHT22;10442;49.932;11.592;2023-03-20T01:52:47;10.70;78.60
20568;DHT22;10442;49.932;11.592;2023-03-20T01:55:16;10.70;78.40
20568;DHT22;10442;49.932;11.592;2023-03-20T01:57:52;10.70;78.30
20568;DHT22;10442;49.932;11.592;2023-03-20T02:00:21;10.70;78.30
20568;DHT22;10442;49.932;11.592;2023-03-20T02:02:50;10.70;78.20
20568;DHT22;10442;49.932;11.592;2023-03-20T02:05:49;10.80;78.30
20568;DHT22;10442;49.932;11.592;2023-03-20T02:08:26;10.80;78.30
20568;DHT22;10442;49.932;11.592;2023-03-20T02:10:56;10.80;78.40
20568;DHT22;10442;49.932;11.592;2023-03-20T02:13:29;10.80;78.20
20568;DHT22;10442;49.932;11.592;2023-03-20T02:16:10;10.80;78.20
20568;DHT22;10442;49.932;11.592;2023-03-20T02:18:54;10.80;78.30
20568;DHT22;10442;49.932;11.592;2023-03-20T02:31:10;10.70;78.40
20568;DHT22;10442;49.932;11.592;2023-03-20T02:34:07;10.70;78.40
20568;DHT22;10442;49.932;11.592;2023-03-20T02:40:04;10.70;78.60
20568;DHT22;10442;49.932;11.592;2023-03-20T02:45:34;10.70;78.60
20568;DHT22;10442;49.932;11.592;2023-03-20T02:48:38;10.70;78.60
20568;DHT22;10442;49.932;11.592;2023-03-20T02:57:04;10.70;78.60
20568;DHT22;10442;49.932;11.592;2023-03-20T03:02:29;10.70;78.60
20568;DHT22;10442;49.932;11.592;2023-03-20T03:05:05;10.70;78.60
20568;DHT22;10442;49.932;11.592;2023-03-20T03:07:36;10.70;78.50
20568;DHT22;10442;49.932;11.592;2023-03-20T03:10:14;10.70;78.50
20568;DHT22;10442;49.932;11.592;2023-03-20T03:12:45;10.80;78.70
20568;DHT22;10442;49.932;11.592;2023-03-20T03:15:41;10.80;78.60
20568;DHT22;10442;49.932;11.592;2023-03-20T03:18:14;10.70;78.80
20568;DHT22;10442;49.932;11.592;2023-03-20T03:20:44;10.80;78.60
20568;DHT22;10442;49.932;11.592;2023-03-20T03:23:39;10.80;78.50
20568;DHT22;10442;49.932;11.592;2023-03-20T03:26:20;10.80;78.70
20568;DHT22;10442;49.932;11.592;2023-03-20T03:28:58;10.70;78.50
20568;DHT22;10442;49.932;11.592;2023-03-20T03:31:28;10.70;78.60
20568;DHT22;10442;49.932;11.592;2023-03-20T03:33:58;10.70;78.50
20568;DHT22;10442;49.932;11.592;2023-03-20T03:36:49;10.70;78.40
20568;DHT22;10442;49.932;11.592;2023-03-20T03:39:35;10.70;78.50
20568;DHT22;10442;49.932;11.592;2023-03-20T03:45:25;10.60;78.00
20568;DHT22;10442;49.932;11.592;2023-03-20T03:48:13;10.50;78.20
20568;DHT22;10442;49.932;11.592;2023-03-20T03:50:52;10.40;77.90
20568;DHT22;10442;49.932;11.592;2023-03-20T03:53:24;10.40;78.00
20568;DHT22;10442;49.932;11.592;2023-03-20T03:55:58;10.40;78.10
20568;DHT22;10442;49.932;11.592;2023-03-20T04:00:58;10.20;78.00
20568;DHT22;10442;49.932;11.592;2023-03-20T04:03:30;10.20;78.00
20568;DHT22;10442;49.932;11.592;2023-03-20T04:05:59;10.10;78.10
20568;DHT22;10442;49.932;11.592;2023-03-20T04:08:28;10.00;78.00
20568;DHT22;10442;49.932;11.592;2023-03-20T04:10:59;9.90;78.00
20568;DHT22;10442;49.932;11.592;2023-03-20T04:13:26;9.90;78.00
20568;DHT22;10442;49.932;11.592;2023-03-20T04:15:54;9.80;77.90
20568;DHT22;10442;49.932;11.592;2023-03-20T04:18:22;9.80;78.00
20568;DHT22;10442;49.932;11.592;2023-03-20T04:20:50;9.70;78.00
20568;DHT22;10442;49.932;11.592;2023-03-20T04:23:18;9.70;78.30
20568;DHT22;10442;49.932;11.592;2023-03-20T04:25:45;9.60;78.40
20568;DHT22;10442;49.932;11.592;2023-03-20T04:28:13;9.60;78.70
20568;DHT22;10442;49.932;11.592;2023-03-20T04:30:54;9.60;78.90
20568;DHT22;10442;49.932;11.592;2023-03-20T04:33:51;9.60;79.10
20568;DHT22;10442;49.932;11.592;2023-03-20T04:36:42;9.60;79.10
20568;DHT22;10442;49.932;11.592;2023-03-20T04:39:12;9.60;79.20
20568;DHT22;10442;49.932;11.592;2023-03-20T04:41:39;9.60;79.30
20568;DHT22;10442;49.932;11.592;2023-03-20T04:44:07;9.60;79.40
20568;DHT22;10442;49.932;11.592;2023-03-20T04:46:35;9.60;79.50
20568;DHT22;10442;49.932;11.592;2023-03-20T04:49:07;9.60;79.50
20568;DHT22;10442;49.932;11.592;2023-03-20T04:51:34;9.70;79.70
20568;DHT22;10442;49.932;11.592;2023-03-20T04:54:02;9.70;79.70
20568;DHT22;10442;49.932;11.592;2023-03-20T04:56:31;9.70;79.70
20568;DHT22;10442;49.932;11.592;2023-03-20T04:59:14;9.80;79.70
20568;DHT22;10442;49.932;11.592;2023-03-20T05:01:42;9.80;79.70
20568;DHT22;10442;49.932;11.592;2023-03-20T05:04:09;9.80;79.80
20568;DHT22;10442;49.932;11.592;2023-03-20T05:06:37;9.80;79.80
20568;DHT22;10442;49.932;11.592;2023-03-20T05:09:04;9.80;79.80
20568;DHT22;10442;49.932;11.592;2023-03-20T05:11:34;9.90;79.90
20568;DHT22;10442;49.932;11.592;2023-03-20T05:14:04;9.90;79.90
20568;DHT22;10442;49.932;11.592;2023-03-20T05:16:56;9.90;79.80
20568;DHT22;10442;49.932;11.592;2023-03-20T05:19:37;10.00;79.80
20568;DHT22;10442;49.932;11.592;2023-03-20T05:22:32;10.00;79.70
20568;DHT22;10442;49.932;11.592;2023-03-20T05:25:09;10.00;79.60
20568;DHT22;10442;49.932;11.592;2023-03-20T05:27:43;10.00;79.60
20568;DHT22;10442;49.932;11.592;2023-03-20T05:30:23;10.10;79.60
20568;DHT22;10442;49.932;11.592;2023-03-20T05:33:08;10.10;79.50
20568;DHT22;10442;49.932;11.592;2023-03-20T05:35:50;10.10;79.50
20568;DHT22;10442;49.932;11.592;2023-03-20T05:38:47;10.10;79.50
20568;DHT22;10442;49.932;11.592;2023-03-20T05:41:41;10.10;79.50
20568;DHT22;10442;49.932;11.592;2023-03-20T05:44:31;10.10;79.50
20568;DHT22;10442;49.932;11.592;2023-03-20T05:47:27;10.20;79.60
20568;DHT22;10442;49.932;11.592;2023-03-20T05:50:05;10.20;79.60
20568;DHT22;10442;49.932;11.592;2023-03-20T05:52:56;10.20;79.90
20568;DHT22;10442;49.932;11.592;2023-03-20T05:55:43;10.20;79.70
20568;DHT22;10442;49.932;11.592;2023-03-20T05:58:42;10.20;79.70
20568;DHT22;10442;49.932;11.592;2023-03-20T06:01:26;10.30;79.80
20568;DHT22;10442;49.932;11.592;2023-03-20T06:04:16;10.30;79.80
20568;DHT22;10442;49.932;11.592;2023-03-20T06:07:13;10.30;79.90
20568;DHT22;10442;49.932;11.592;2023-03-20T06:09:44;10.30;79.90
20568;DHT22;10442;49.932;11.592;2023-03-20T06:12:13;10.40;80.00
20568;DHT22;10442;49.932;11.592;2023-03-20T06:14:40;10.40;80.00
20568;DHT22;10442;49.932;11.592;2023-03-20T06:17:08;10.40;80.10
20568;DHT22;10442;49.932;11.592;2023-03-20T06:19:36;10.50;80.20
20568;DHT22;10442;49.932;11.592;2023-03-20T06:22:05;10.50;80.20
20568;DHT22;10442;49.932;11.592;2023-03-20T06:24:32;10.50;80.30
20568;DHT22;10442;49.932;11.592;2023-03-20T06:27:01;10.60;80.50
20568;DHT22;10442;49.932;11.592;2023-03-20T06:29:29;10.60;80.50
20568;DHT22;10442;49.932;11.592;2023-03-20T06:32:06;10.70;80.50
20568;DHT22;10442;49.932;11.592;2023-03-20T06:34:35;10.80;80.70
20568;DHT22;10442;49.932;11.592;2023-03-20T06:37:03;10.80;80.70
20568;DHT22;10442;49.932;11.592;2023-03-20T06:39:30;10.90;80.70
20568;DHT22;10442;49.932;11.592;2023-03-20T06:41:58;10.90;80.70
20568;DHT22;10442;49.932;11.592;2023-03-20T06:44:26;11.00;80.60
20568;DHT22;10442;49.932;11.592;2023-03-20T06:47:05;11.00;80.50
20568;DHT22;10442;49.932;11.592;2023-03-20T06:49:32;11.10;80.60
20568;DHT22;10442;49.932;11.592;2023-03-20T06:52:00;11.20;80.60
20568;DHT22;10442;49.932;11.592;2023-03-20T06:54:27;11.20;80.50
20568;DHT22;10442;49.932;11.592;2023-03-20T06:56:56;11.30;80.60
20568;DHT22;10442;49.932;11.592;2023-03-20T06:59:24;11.30;80.70
20568;DHT22;10442;49.932;11.592;2023-03-20T07:01:56;11.40;80.80
20568;DHT22;10442;49.932;11.592;2023-03-20T07:04:25;11.50;80.90
20568;DHT22;10442;49.932;11.592;2023-03-20T07:06:55;11.50;80.90
20568;DHT22;10442;49.932;11.592;2023-03-20T07:09:24;11.60;80.90
20568;DHT22;10442;49.932;11.592;2023-03-20T07:11:52;11.70;80.80
20568;DHT22;10442;49.932;11.592;2023-03-20T07:14:21;11.70;80.60
20568;DHT22;10442;49.932;11.592;2023-03-20T07:16:55;11.80;80.60
20568;DHT22;10442;49.932;11.592;2023-03-20T07:19:23;11.80;80.40
20568;DHT22;10442;49.932;11.592;2023-03-20T07:21:58;11.90;80.30
20568;DHT22;10442;49.932;11.592;2023-03-20T07:24:32;12.00;80.20
20568;DHT22;10442;49.932;11.592;2023-03-20T07:27:00;12.00;80.10
20568;DHT22;10442;49.932;11.592;2023-03-20T07:29:28;12.10;80.00
20568;DHT22;10442;49.932;11.592;2023-03-20T07:31:57;12.10;79.90
20568;DHT22;10442;49.932;11.592;2023-03-20T07:34:32;12.20;79.70
20568;DHT22;10442;49.932;11.592;2023-03-20T07:37:00;12.30;79.90
20568;DHT22;10442;49.932;11.592;2023-03-20T07:39:30;12.30;79.70
20568;DHT22;10442;49.932;11.592;2023-03-20T07:42:18;12.40;79.60
20568;DHT22;10442;49.932;11.592;2023-03-20T07:44:56;12.50;79.50
20568;DHT22;10442;49.932;11.592;2023-03-20T07:47:24;12.50;79.40
20568;DHT22;10442;49.932;11.592;2023-03-20T07:49:51;12.60;79.30
20568;DHT22;10442;49.932;11.592;2023-03-20T07:52:19;12.70;79.10
20568;DHT22;10442;49.932;11.592;2023-03-20T07:54:46;12.70;79.00
20568;DHT22;10442;49.932;11.592;2023-03-20T07:57:14;12.80;78.70
20568;DHT22;10442;49.932;11.592;2023-03-20T07:59:41;12.80;78.40
20568;DHT22;10442;49.932;11.592;2023-03-20T08:02:14;12.80;78.30
20568;DHT22;10442;49.932;11.592;2023-03-20T08:04:43;12.80;78.20
20568;DHT22;10442;49.932;11.592;2023-03-20T08:07:11;12.90;78.30
20568;DHT22;10442;49.932;11.592;2023-03-20T08:09:39;12.90;78.10
20568;DHT22;10442;49.932;11.592;2023-03-20T08:12:06;12.90;78.00
20568;DHT22;10442;49.932;11.592;2023-03-20T08:14:34;13.00;78.00
20568;DHT22;10442;49.932;11.592;2023-03-20T08:17:01;13.00;77.70
20568;DHT22;10442;49.932;11.592;2023-03-20T08:19:41;13.10;77.60
20568;DHT22;10442;49.932;11.592;2023-03-20T08:22:08;13.10;77.40
20568;DHT22;10442;49.932;11.592;2023-03-20T08:24:36;13.10;77.30
20568;DHT22;10442;49.932;11.592;2023-03-20T08:27:03;13.10;77.20
20568;DHT22;10442;49.932;11.592;2023-03-20T08:29:31;13.10;77.30
20568;DHT22;10442;49.932;11.592;2023-03-20T08:31:58;13.20;77.20
20568;DHT22;10442;49.932;11.592;2023-03-20T08:34:26;13.20;77.10
20568;DHT22;10442;49.932;11.592;2023-03-20T08:36:54;13.20;77.20
20568;DHT22;10442;49.932;11.592;2023-03-20T08:39:21;13.20;77.30
20568;DHT22;10442;49.932;11.592;2023-03-20T08:41:49;13.20;77.90
20568;DHT22;10442;49.932;11.592;2023-03-20T08:44:16;13.30;77.20
20568;DHT22;10442;49.932;11.592;2023-03-20T08:46:44;13.30;77.20
20568;DHT22;10442;49.932;11.592;2023-03-20T08:49:12;13.30;77.00
20568;DHT22;10442;49.932;11.592;2023-03-20T08:51:40;13.40;76.70
20568;DHT22;10442;49.932;11.592;2023-03-20T08:54:09;13.40;76.50
20568;DHT22;10442;49.932;11.592;2023-03-20T08:56:36;13.40;76.60
20568;DHT22;10442;49.932;11.592;2023-03-20T08:59:03;13.40;76.60
20568;DHT22;10442;49.932;11.592;2023-03-20T09:01:31;13.50;76.50
20568;DHT22;10442;49.932;11.592;2023-03-20T09:04:16;13.50;76.50
20568;DHT22;10442;49.932;11.592;2023-03-20T09:06:44;13.60;76.70
20568;DHT22;10442;49.932;11.592;2023-03-20T09:09:11;13.60;76.30
20568;DHT22;10442;49.932;11.592;2023-03-20T09:11:42;13.70;76.10
20568;DHT22;10442;49.932;11.592;2023-03-20T09:14:09;13.70;76.10
20568;DHT22;10442;49.932;11.592;2023-03-20T09:16:37;13.80;76.10
20568;DHT22;10442;49.932;11.592;2023-03-20T09:19:05;13.80;75.80
20568;DHT22;10442;49.932;11.592;2023-03-20T09:21:32;13.90;75.50
20568;DHT22;10442;49.932;11.592;2023-03-20T09:24:00;13.90;75.30
20568;DHT22;10442;49.932;11.592;2023-03-20T09:26:28;13.90;75.00
20568;DHT22;10442;49.932;11.592;2023-03-20T09:28:55;14.00;75.20
20568;DHT22;10442;49.932;11.592;2023-03-20T09:31:23;14.00;75.00
20568;DHT22;10442;49.932;11.592;2023-03-20T09:33:50;14.00;74.80
20568;DHT22;10442;49.932;11.592;2023-03-20T09:36:18;14.00;74.80
20568;DHT22;10442;49.932;11.592;2023-03-20T09:38:45;14.00;74.80
20568;DHT22;10442;49.932;11.592;2023-03-20T09:41:21;14.00;74.80
20568;DHT22;10442;49.932;11.592;2023-03-20T09:44:13;14.00;74.80
20568;DHT22;10442;49.932;11.592;2023-03-20T09:49:58;14.10;74.80
20568;DHT22;10442;49.932;11.592;2023-03-20T09:52:32;14.10;74.50
20568;DHT22;10442;49.932;11.592;2023-03-20T09:55:22;14.10;74.70
20568;DHT22;10442;49.932;11.592;2023-03-20T09:57:56;14.20;74.90
20568;DHT22;10442;49.932;11.592;2023-03-20T10:00:27;14.30;74.70
20568;DHT22;10442;49.932;11.592;2023-03-20T10:02:59;14.20;74.40
20568;DHT22;10442;49.932;11.592;2023-03-20T10:05:30;14.30;74.50
20568;DHT22;10442;49.932;11.592;2023-03-20T10:08:02;14.30;74.30
20568;DHT22;10442;49.932;11.592;2023-03-20T10:13:37;14.30;74.20
20568;DHT22;10442;49.932;11.592;2023-03-20T10:16:12;14.30;74.20
20568;DHT22;10442;49.932;11.592;2023-03-20T10:19:30;14.30;74.20
20568;DHT22;10442;49.932;11.592;2023-03-20T10:22:01;14.30;74.40
20568;DHT22;10442;49.932;11.592;2023-03-20T10:24:39;14.30;74.50
20568;DHT22;10442;49.932;11.592;2023-03-20T10:27:25;14.30;74.50
20568;DHT22;10442;49.932;11.592;2023-03-20T10:30:34;14.30;74.70
20568;DHT22;10442;49.932;11.592;2023-03-20T10:40:55;14.40;74.20
20568;DHT22;10442;49.932;11.592;2023-03-20T10:43:32;14.40;74.20
20568;DHT22;10442;49.932;11.592;2023-03-20T10:46:16;14.40;74.10
20568;DHT22;10442;49.932;11.592;2023-03-20T10:48:56;14.40;74.10
20568;DHT22;10442;49.932;11.592;2023-03-20T10:51:39;14.50;73.90
20568;DHT22;10442;49.932;11.592;2023-03-20T10:56:57;14.40;73.60
20568;DHT22;10442;49.932;11.592;2023-03-20T10:59:28;14.40;73.60
20568;DHT22;10442;49.932;11.592;2023-03-20T11:01:58;14.40;73.60
20568;DHT22;10442;49.932;11.592;2023-03-20T11:04:25;14.40;73.70
20568;DHT22;10442;49.932;11.592;2023-03-20T11:07:00;14.30;73.60
20568;DHT22;10442;49.932;11.592;2023-03-20T11:09:29;14.30;74.60
20568;DHT22;10442;49.932;11.592;2023-03-20T11:12:00;14.30;73.90
20568;DHT22;10442;49.932;11.592;2023-03-20T11:14:35;14.30;73.70
20568;DHT22;10442;49.932;11.592;2023-03-20T11:17:05;14.30;73.60
20568;DHT22;10442;49.932;11.592;2023-03-20T11:19:35;14.30;73.60
20568;DHT22;10442;49.932;11.592;2023-03-20T11:22:23;14.30;73.60
20568;DHT22;10442;49.932;11.592;2023-03-20T11:24:53;14.30;73.50
20568;DHT22;10442;49.932;11.592;2023-03-20T11:27:27;14.30;73.70
20568;DHT22;10442;49.932;11.592;2023-03-20T11:29:55;14.30;73.80
20568;DHT22;10442;49.932;11.592;2023-03-20T11:32:33;14.30;73.90
20568;DHT22;10442;49.932;11.592;2023-03-20T11:38:05;14.30;74.10
20568;DHT22;10442;49.932;11.592;2023-03-20T11:40:34;14.40;74.20
20568;DHT22;10442;49.932;11.592;2023-03-20T11:43:08;14.40;74.00
20568;DHT22;10442;49.932;11.592;2023-03-20T11:45:43;14.50;74.00
20568;DHT22;10442;49.932;11.592;2023-03-20T11:48:19;14.50;73.70
20568;DHT22;10442;49.932;11.592;2023-03-20T11:51:13;14.60;73.40
20568;DHT22;10442;49.932;11.592;2023-03-20T11:53:57;14.60;73.50
20568;DHT22;10442;49.932;11.592;2023-03-20T11:56:28;14.60;73.70
20568;DHT22;10442;49.932;11.592;2023-03-20T12:01:41;14.70;73.40
20568;DHT22;10442;49.932;11.592;2023-03-20T12:04:20;14.70;73.10
20568;DHT22;10442;49.932;11.592;2023-03-20T12:09:50;14.70;73.30
20568;DHT22;10442;49.932;11.592;2023-03-20T12:12:52;14.80;73.30
20568;DHT22;10442;49.932;11.592;2023-03-20T12:15:25;14.80;72.90
20568;DHT22;10442;49.932;11.592;2023-03-20T12:18:11;14.80;72.70
20568;DHT22;10442;49.932;11.592;2023-03-20T12:20:53;14.80;72.90
20568;DHT22;10442;49.932;11.592;2023-03-20T12:23:31;14.90;73.20
20568;DHT22;10442;49.932;11.592;2023-03-20T12:28:47;15.10;72.60
20568;DHT22;10442;49.932;11.592;2023-03-20T12:31:31;15.20;73.60
20568;DHT22;10442;49.932;11.592;2023-03-20T12:34:11;15.30;72.70
20568;DHT22;10442;49.932;11.592;2023-03-20T12:36:44;15.40;72.00
20568;DHT22;10442;49.932;11.592;2023-03-20T12:39:24;15.50;71.70
20568;DHT22;10442;49.932;11.592;2023-03-20T12:44:54;15.60;71.00
20568;DHT22;10442;49.932;11.592;2023-03-20T12:50:24;15.70;70.20
20568;DHT22;10442;49.932;11.592;2023-03-20T12:55:44;15.80;70.50
20568;DHT22;10442;49.932;11.592;2023-03-20T12:58:38;15.90;69.90
20568;DHT22;10442;49.932;11.592;2023-03-20T13:01:20;15.90;69.40
20568;DHT22;10442;49.932;11.592;2023-03-20T13:12:23;16.00;68.70
20568;DHT22;10442;49.932;11.592;2023-03-20T13:15:00;16.10;68.80
20568;DHT22;10442;49.932;11.592;2023-03-20T13:26:09;16.00;67.50
20568;DHT22;10442;49.932;11.592;2023-03-20T13:31:16;15.90;67.80
20568;DHT22;10442;49.932;11.592;2023-03-20T13:33:55;15.90;68.10
20568;DHT22;10442;49.932;11.592;2023-03-20T13:36:34;15.80;68.00
20568;DHT22;10442;49.932;11.592;2023-03-20T13:39:23;15.80;67.90
20568;DHT22;10442;49.932;11.592;2023-03-20T13:41:52;15.80;68.20
20568;DHT22;10442;49.932;11.592;2023-03-20T13:44:22;15.80;68.30
20568;DHT22;10442;49.932;11.592;2023-03-20T13:49:34;15.80;68.10
20568;DHT22;10442;49.932;11.592;2023-03-20T13:52:14;15.80;67.80
20568;DHT22;10442;49.932;11.592;2023-03-20T13:58:13;15.80;67.00
20568;DHT22;10442;49.932;11.592;2023-03-20T14:05:50;15.90;67.60
20568;DHT22;10442;49.932;11.592;2023-03-20T14:11:13;15.80;67.30
20568;DHT22;10442;49.932;11.592;2023-03-20T14:13:49;15.90;67.30
20568;DHT22;10442;49.932;11.592;2023-03-20T14:16:18;15.90;67.10
20568;DHT22;10442;49.932;11.592;2023-03-20T14:19:02;15.80;66.70
20568;DHT22;10442;49.932;11.592;2023-03-20T14:21:30;15.80;67.00
20568;DHT22;10442;49.932;11.592;2023-03-20T14:24:02;15.80;67.20
20568;DHT22;10442;49.932;11.592;2023-03-20T14:26:34;15.70;67.30
20568;DHT22;10442;49.932;11.592;2023-03-20T14:31:38;15.50;67.40
20568;DHT22;10442;49.932;11.592;2023-03-20T14:39:44;15.40;67.70
20568;DHT22;10442;49.932;11.592;2023-03-20T14:47:45;15.30;68.10
20568;DHT22;10442;49.932;11.592;2023-03-20T14:53:11;15.20;68.00
20568;DHT22;10442;49.932;11.592;2023-03-20T15:04:39;15.30;68.40
20568;DHT22;10442;49.932;11.592;2023-03-20T15:09:26;15.30;67.90
20568;DHT22;10442;49.932;11.592;2023-03-20T15:11:54;15.30;67.80
20568;DHT22;10442;49.932;11.592;2023-03-20T15:14:26;15.30;68.60
20568;DHT22;10442;49.932;11.592;2023-03-20T15:16:57;15.30;67.60
20568;DHT22;10442;49.932;11.592;2023-03-20T15:19:26;15.20;67.80
20568;DHT22;10442;49.932;11.592;2023-03-20T15:21:54;15.20;68.60
20568;DHT22;10442;49.932;11.592;2023-03-20T15:24:24;15.30;68.00
20568;DHT22;10442;49.932;11.592;2023-03-20T15:26:56;15.20;67.80
20568;DHT22;10442;49.932;11.592;2023-03-20T15:29:24;15.20;67.90
20568;DHT22;10442;49.932;11.592;2023-03-20T15:31:57;15.30;67.80
20568;DHT22;10442;49.932;11.592;2023-03-20T15:34:41;15.30;67.70
20568;DHT22;10442;49.932;11.592;2023-03-20T15:37:14;15.20;67.40
20568;DHT22;10442;49.932;11.592;2023-03-20T15:39:50;15.20;67.40
20568;DHT22;10442;49.932;11.592;2023-03-20T15:42:20;15.20;67.60
20568;DHT22;10442;49.932;11.592;2023-03-20T15:44:51;15.10;67.80
20568;DHT22;10442;49.932;11.592;2023-03-20T15:47:21;15.10;67.70
20568;DHT22;10442;49.932;11.592;2023-03-20T15:49:59;15.10;67.60
20568;DHT22;10442;49.932;11.592;2023-03-20T15:52:33;15.10;67.30
20568;DHT22;10442;49.932;11.592;2023-03-20T15:55:16;15.10;67.50
20568;DHT22;10442;49.932;11.592;2023-03-20T15:57:46;15.00;67.60
20568;DHT22;10442;49.932;11.592;2023-03-20T16:00:20;15.00;67.70
20568;DHT22;10442;49.932;11.592;2023-03-20T16:02:50;15.00;67.70
20568;DHT22;10442;49.932;11.592;2023-03-20T16:05:18;15.00;67.70
20568;DHT22;10442;49.932;11.592;2023-03-20T16:07:48;14.90;67.80
20568;DHT22;10442;49.932;11.592;2023-03-20T16:12:51;14.90;67.70
20568;DHT22;10442;49.932;11.592;2023-03-20T16:15:24;14.90;67.80
20568;DHT22;10442;49.932;11.592;2023-03-20T16:17:56;14.90;67.80
20568;DHT22;10442;49.932;11.592;2023-03-20T16:20:30;14.90;67.80
20568;DHT22;10442;49.932;11.592;2023-03-20T16:23:03;14.90;67.90
20568;DHT22;10442;49.932;11.592;2023-03-20T16:25:33;14.90;68.60
20568;DHT22;10442;49.932;11.592;2023-03-20T16:28:03;14.90;67.90
20568;DHT22;10442;49.932;11.592;2023-03-20T16:30:33;14.80;67.80
20568;DHT22;10442;49.932;11.592;2023-03-20T16:33:14;14.80;67.80
20568;DHT22;10442;49.932;11.592;2023-03-20T16:35:49;14.80;68.00
20568;DHT22;10442;49.932;11.592;2023-03-20T16:38:33;14.80;68.10
20568;DHT22;10442;49.932;11.592;2023-03-20T16:43:49;14.70;68.10
20568;DHT22;10442;49.932;11.592;2023-03-20T16:46:20;14.70;68.00
20568;DHT22;10442;49.932;11.592;2023-03-20T16:51:46;14.70;68.00
20568;DHT22;10442;49.932;11.592;2023-03-20T16:54:19;14.60;67.90
20568;DHT22;10442;49.932;11.592;2023-03-20T16:56:52;14.60;68.00
20568;DHT22;10442;49.932;11.592;2023-03-20T16:59:20;14.60;67.90
20568;DHT22;10442;49.932;11.592;2023-03-20T17:01:48;14.50;67.90
20568;DHT22;10442;49.932;11.592;2023-03-20T17:04:20;14.50;67.90
20568;DHT22;10442;49.932;11.592;2023-03-20T17:06:52;14.40;67.80
20568;DHT22;10442;49.932;11.592;2023-03-20T17:14:24;14.30;68.10
20568;DHT22;10442;49.932;11.592;2023-03-20T17:16:51;14.20;68.10
20568;DHT22;10442;49.932;11.592;2023-03-20T17:19:21;14.20;68.20
20568;DHT22;10442;49.932;11.592;2023-03-20T17:21:48;14.10;68.20
20568;DHT22;10442;49.932;11.592;2023-03-20T17:24:16;14.10;68.30
20568;DHT22;10442;49.932;11.592;2023-03-20T17:26:52;14.00;68.30
20568;DHT22;10442;49.932;11.592;2023-03-20T17:29:20;13.90;68.50
20568;DHT22;10442;49.932;11.592;2023-03-20T17:31:47;13.90;68.70
20568;DHT22;10442;49.932;11.592;2023-03-20T17:34:15;13.80;68.70
20568;DHT22;10442;49.932;11.592;2023-03-20T17:36:42;13.80;68.90
20568;DHT22;10442;49.932;11.592;2023-03-20T17:39:16;13.80;69.00
20568;DHT22;10442;49.932;11.592;2023-03-20T17:41:45;13.80;69.90
20568;DHT22;10442;49.932;11.592;2023-03-20T17:44:13;13.70;69.10
20568;DHT22;10442;49.932;11.592;2023-03-20T17:46:40;13.60;69.20
20568;DHT22;10442;49.932;11.592;2023-03-20T17:49:24;13.60;69.30
20568;DHT22;10442;49.932;11.592;2023-03-20T17:51:54;13.60;69.40
20568;DHT22;10442;49.932;11.592;2023-03-20T17:54:21;13.60;69.50
20568;DHT22;10442;49.932;11.592;2023-03-20T17:56:49;13.50;69.50
20568;DHT22;10442;49.932;11.592;2023-03-20T17:59:16;13.50;69.60
20568;DHT22;10442;49.932;11.592;2023-03-20T18:01:44;13.50;69.60
20568;DHT22;10442;49.932;11.592;2023-03-20T18:04:11;13.50;69.70
20568;DHT22;10442;49.932;11.592;2023-03-20T18:06:39;13.50;69.80
20568;DHT22;10442;49.932;11.592;2023-03-20T18:09:09;13.50;69.80
20568;DHT22;10442;49.932;11.592;2023-03-20T18:11:39;13.40;69.70
20568;DHT22;10442;49.932;11.592;2023-03-20T18:14:06;13.40;69.70
20568;DHT22;10442;49.932;11.592;2023-03-20T18:16:34;13.40;69.70
20568;DHT22;10442;49.932;11.592;2023-03-20T18:19:02;13.40;69.70
20568;DHT22;10442;49.932;11.592;2023-03-20T18:21:29;13.40;69.80